sensor_id;sensor_type;location;lat;lon;timestamp;pressure;altitude;pressure_sealevel;temperature;humidity
4085;BME280;2057;50.858;6.572;2024-03-06T00:02:07;100495.25;;;6.21;100.00
4085;BME280;2057;50.858;6.572;2024-03-06T00:04:33;100502.72;;;6.20;100.00
4085;BME280;2057;50.858;6.572;2024-03-06T00:07:02;100504.53;;;6.09;100.00
4085;BME280;2057;50.858;6.572;2024-03-06T00:09:27;100506.53;;;6.01;100.00
4085;BME280;2057;50.858;6.572;2024-03-06T00:11:55;100508.03;;;6.11;100.00
4085;BME280;2057;50.858;6.572;2024-03-06T00:14:22;100515.44;;;5.84;100.00
4085;BME280;2057;50.858;6.572;2024-03-06T00:16:49;100512.03;;;5.84;100.00
4085;BME280;2057;50.858;6.572;2024-03-06T00:19:18;100520.13;;;5.91;100.00
4085;BME280;2057;50.858;6.572;2024-03-06T00:21:46;100530.28;;;5.93;100.00
4085;BME280;2057;50.858;6.572;2024-03-06T00:24:19;100527.81;;;5.81;100.00
4085;BME280;2057;50.858;6.572;2024-03-06T00:26:45;100525.66;;;5.74;100.00
4085;BME280;2057;50.858;6.572;2024-03-06T00:29:11;100523.91;;;5.73;100.00
4085;BME280;2057;50.858;6.572;2024-03-06T00:31:43;100529.22;;;5.89;100.00
4085;BME280;2057;50.858;6.572;2024-03-06T00:34:09;100530.88;;;5.77;100.00
4085;BME280;2057;50.858;6.572;2024-03-06T00:36:35;100532.03;;;5.57;100.00
4085;BME280;2057;50.858;6.572;2024-03-06T00:39:03;100535.31;;;5.68;100.00
4085;BME280;2057;50.858;6.572;2024-03-06T00:41:30;100531.66;;;5.64;100.00
4085;BME280;2057;50.858;6.572;2024-03-06T00:43:55;100534.09;;;5.62;100.00
4085;BME280;2057;50.858;6.572;2024-03-06T00:46:23;100539.69;;;5.58;100.00
4085;BME280;2057;50.858;6.572;2024-03-06T00:48:48;100543.53;;;5.53;100.00
4085;BME280;2057;50.858;6.572;2024-03-06T00:51:13;100540.56;;;5.59;100.00
4085;BME280;2057;50.858;6.572;2024-03-06T00:53:39;100549.78;;;5.58;100.00
4085;BME280;2057;50.858;6.572;2024-03-06T00:56:08;100545.06;;;5.51;100.00
4085;BME280;2057;50.858;6.572;2024-03-06T00:58:33;100547.81;;;5.42;100.00
4085;BME280;2057;50.858;6.572;2024-03-06T01:00:58;100557.66;;;5.27;100.00
4085;BME280;2057;50.858;6.572;2024-03-06T01:03:24;100555.56;;;5.10;100.00
4085;BME280;2057;50.858;6.572;2024-03-06T01:05:52;100561.19;;;5.06;100.00
4085;BME280;2057;50.858;6.572;2024-03-06T01:08:18;100565.53;;;4.96;100.00
4085;BME280;2057;50.858;6.572;2024-03-06T01:10:44;100563.97;;;4.86;100.00
4085;BME280;2057;50.858;6.572;2024-03-06T01:13:12;100567.69;;;4.80;100.00
4085;BME280;2057;50.858;6.572;2024-03-06T01:15:38;100567.91;;;4.83;100.00
4085;BME280;2057;50.858;6.572;2024-03-06T01:18:04;100569.44;;;4.81;100.00
4085;BME280;2057;50.858;6.572;2024-03-06T01:20:29;100573.50;;;4.91;100.00
4085;BME280;2057;50.858;6.572;2024-03-06T01:22:54;100581.25;;;4.82;100.00
4085;BME280;2057;50.858;6.572;2024-03-06T01:25:20;100581.47;;;4.85;100.00
4085;BME280;2057;50.858;6.572;2024-03-06T01:27:47;100580.28;;;4.80;100.00
4085;BME280;2057;50.858;6.572;2024-03-06T01:30:13;100584.56;;;4.93;100.00
4085;BME280;2057;50.858;6.572;2024-03-06T01:32:41;100576.28;;;5.06;100.00
4085;BME280;2057;50.858;6.572;2024-03-06T01:35:06;100583.34;;;4.99;100.00
4085;BME280;2057;50.858;6.572;2024-03-06T01:37:32;100579.97;;;4.87;100.00
4085;BME280;2057;50.858;6.572;2024-03-06T01:39:57;100581.47;;;4.85;100.00
4085;BME280;2057;50.858;6.572;2024-03-06T01:42:23;100580.38;;;4.81;100.00
4085;BME280;2057;50.858;6.572;2024-03-06T01:44:49;100579.47;;;4.69;100.00
4085;BME280;2057;50.858;6.572;2024-03-06T01:47:14;100578.84;;;4.71;100.00
4085;BME280;2057;50.858;6.572;2024-03-06T01:49:39;100584.69;;;4.60;100.00
4085;BME280;2057;50.858;6.572;2024-03-06T01:52:05;100581.44;;;4.61;100.00
4085;BME280;2057;50.858;6.572;2024-03-06T01:54:31;100581.53;;;4.63;100.00
4085;BME280;2057;50.858;6.572;2024-03-06T01:56:57;100579.44;;;4.57;100.00
4085;BME280;2057;50.858;6.572;2024-03-06T01:59:26;100575.47;;;4.49;100.00
4085;BME280;2057;50.858;6.572;2024-03-06T02:01:54;100582.81;;;4.46;100.00
4085;BME280;2057;50.858;6.572;2024-03-06T02:04:20;100579.59;;;4.36;100.00
4085;BME280;2057;50.858;6.572;2024-03-06T02:06:46;100579.88;;;4.29;100.00
4085;BME280;2057;50.858;6.572;2024-03-06T02:09:12;100580.66;;;4.28;100.00
4085;BME280;2057;50.858;6.572;2024-03-06T02:11:41;100582.34;;;4.17;100.00
4085;BME280;2057;50.858;6.572;2024-03-06T02:14:07;100579.66;;;4.26;100.00
4085;BME280;2057;50.858;6.572;2024-03-06T02:16:36;100576.44;;;4.17;100.00
4085;BME280;2057;50.858;6.572;2024-03-06T02:19:01;100571.47;;;4.29;100.00
4085;BME280;2057;50.858;6.572;2024-03-06T02:21:26;100579.81;;;4.39;100.00
4085;BME280;2057;50.858;6.572;2024-03-06T02:23:52;100574.78;;;4.39;100.00
4085;BME280;2057;50.858;6.572;2024-03-06T02:26:21;100579.63;;;4.48;100.00
4085;BME280;2057;50.858;6.572;2024-03-06T02:28:54;100585.94;;;4.43;100.00
4085;BME280;2057;50.858;6.572;2024-03-06T02:31:20;100583.56;;;4.45;100.00
4085;BME280;2057;50.858;6.572;2024-03-06T02:33:47;100589.44;;;4.45;100.00
4085;BME280;2057;50.858;6.572;2024-03-06T02:36:22;100585.41;;;4.47;100.00
4085;BME280;2057;50.858;6.572;2024-03-06T02:38:50;100584.13;;;4.30;100.00
4085;BME280;2057;50.858;6.572;2024-03-06T02:41:17;100579.47;;;4.35;100.00
4085;BME280;2057;50.858;6.572;2024-03-06T02:43:42;100572.06;;;4.36;100.00
4085;BME280;2057;50.858;6.572;2024-03-06T02:46:08;100578.59;;;4.34;100.00
4085;BME280;2057;50.858;6.572;2024-03-06T02:48:33;100580.31;;;4.23;100.00
4085;BME280;2057;50.858;6.572;2024-03-06T02:50:59;100582.38;;;4.29;100.00
4085;BME280;2057;50.858;6.572;2024-03-06T02:53:24;100591.56;;;4.29;100.00
4085;BME280;2057;50.858;6.572;2024-03-06T02:55:59;100581.72;;;4.20;100.00
4085;BME280;2057;50.858;6.572;2024-03-06T02:58:25;100582.88;;;4.13;100.00
4085;BME280;2057;50.858;6.572;2024-03-06T03:00:50;100583.88;;;4.15;100.00
4085;BME280;2057;50.858;6.572;2024-03-06T03:03:16;100585.38;;;4.13;100.00
4085;BME280;2057;50.858;6.572;2024-03-06T03:05:43;100583.53;;;4.11;100.00
4085;BME280;2057;50.858;6.572;2024-03-06T03:08:09;100584.31;;;3.99;100.00
4085;BME280;2057;50.858;6.572;2024-03-06T03:10:35;100587.25;;;3.93;100.00
4085;BME280;2057;50.858;6.572;2024-03-06T03:13:01;100586.72;;;3.98;100.00
4085;BME280;2057;50.858;6.572;2024-03-06T03:15:26;100586.22;;;3.69;100.00
4085;BME280;2057;50.858;6.572;2024-03-06T03:17:52;100586.56;;;3.41;100.00
4085;BME280;2057;50.858;6.572;2024-03-06T03:20:18;100593.47;;;3.44;100.00
4085;BME280;2057;50.858;6.572;2024-03-06T03:22:43;100590.47;;;3.70;100.00
4085;BME280;2057;50.858;6.572;2024-03-06T03:25:13;100589.50;;;3.68;100.00
4085;BME280;2057;50.858;6.572;2024-03-06T03:27:41;100596.50;;;3.72;100.00
4085;BME280;2057;50.858;6.572;2024-03-06T03:30:10;100591.13;;;3.68;100.00
4085;BME280;2057;50.858;6.572;2024-03-06T03:32:36;100596.78;;;3.65;100.00
4085;BME280;2057;50.858;6.572;2024-03-06T03:35:03;100605.03;;;3.74;100.00
4085;BME280;2057;50.858;6.572;2024-03-06T03:37:29;100606.53;;;3.72;100.00
4085;BME280;2057;50.858;6.572;2024-03-06T03:39:54;100612.78;;;3.45;100.00
4085;BME280;2057;50.858;6.572;2024-03-06T03:42:23;100621.84;;;3.22;100.00
4085;BME280;2057;50.858;6.572;2024-03-06T03:44:48;100622.88;;;2.93;100.00
4085;BME280;2057;50.858;6.572;2024-03-06T03:47:13;100633.53;;;2.70;100.00
4085;BME280;2057;50.858;6.572;2024-03-06T03:49:39;100636.66;;;2.78;100.00
4085;BME280;2057;50.858;6.572;2024-03-06T03:52:04;100636.28;;;2.83;100.00
4085;BME280;2057;50.858;6.572;2024-03-06T03:54:29;100640.81;;;2.77;100.00
4085;BME280;2057;50.858;6.572;2024-03-06T03:56:57;100643.19;;;2.76;100.00
4085;BME280;2057;50.858;6.572;2024-03-06T03:59:24;100645.44;;;2.73;100.00
4085;BME280;2057;50.858;6.572;2024-03-06T04:01:50;100649.47;;;2.91;100.00
4085;BME280;2057;50.858;6.572;2024-03-06T04:04:18;100653.34;;;2.98;100.00
4085;BME280;2057;50.858;6.572;2024-03-06T04:06:43;100657.38;;;3.06;100.00
4085;BME280;2057;50.858;6.572;2024-03-06T04:09:08;100663.63;;;3.11;100.00
4085;BME280;2057;50.858;6.572;2024-03-06T04:11:36;100662.25;;;3.25;100.00
4085;BME280;2057;50.858;6.572;2024-03-06T04:14:03;100663.00;;;3.24;100.00
4085;BME280;2057;50.858;6.572;2024-03-06T04:16:28;100663.00;;;3.24;100.00
4085;BME280;2057;50.858;6.572;2024-03-06T04:18:53;100661.22;;;3.23;100.00
4085;BME280;2057;50.858;6.572;2024-03-06T04:21:19;100668.50;;;3.41;100.00
4085;BME280;2057;50.858;6.572;2024-03-06T04:23:44;100665.38;;;3.33;100.00
4085;BME280;2057;50.858;6.572;2024-03-06T04:26:11;100664.00;;;3.26;100.00
4085;BME280;2057;50.858;6.572;2024-03-06T04:28:37;100662.59;;;3.40;100.00
4085;BME280;2057;50.858;6.572;2024-03-06T04:31:02;100667.00;;;3.43;100.00
4085;BME280;2057;50.858;6.572;2024-03-06T04:33:27;100672.09;;;3.65;100.00
4085;BME280;2057;50.858;6.572;2024-03-06T04:35:53;100674.06;;;3.80;100.00
4085;BME280;2057;50.858;6.572;2024-03-06T04:38:18;100677.47;;;3.80;100.00
4085;BME280;2057;50.858;6.572;2024-03-06T04:40:43;100673.31;;;3.81;100.00
4085;BME280;2057;50.858;6.572;2024-03-06T04:43:10;100678.94;;;3.88;100.00
4085;BME280;2057;50.858;6.572;2024-03-06T04:45:35;100690.31;;;3.95;100.00
4085;BME280;2057;50.858;6.572;2024-03-06T04:48:01;100692.47;;;3.90;100.00
4085;BME280;2057;50.858;6.572;2024-03-06T04:50:26;100693.09;;;3.98;100.00
4085;BME280;2057;50.858;6.572;2024-03-06T04:52:52;100690.94;;;4.03;100.00
4085;BME280;2057;50.858;6.572;2024-03-06T04:55:18;100692.59;;;4.02;100.00
4085;BME280;2057;50.858;6.572;2024-03-06T04:57:47;100698.16;;;3.77;100.00
4085;BME280;2057;50.858;6.572;2024-03-06T05:00:15;100699.91;;;3.79;100.00
4085;BME280;2057;50.858;6.572;2024-03-06T05:02:42;100697.03;;;3.84;100.00
4085;BME280;2057;50.858;6.572;2024-03-06T05:05:08;100699.69;;;3.86;100.00
4085;BME280;2057;50.858;6.572;2024-03-06T05:07:36;100701.41;;;3.87;100.00
4085;BME280;2057;50.858;6.572;2024-03-06T05:10:01;100691.50;;;3.88;100.00
4085;BME280;2057;50.858;6.572;2024-03-06T05:12:32;100698.00;;;3.97;100.00
4085;BME280;2057;50.858;6.572;2024-03-06T05:14:57;100693.44;;;4.03;100.00
4085;BME280;2057;50.858;6.572;2024-03-06T05:17:23;100697.38;;;3.99;100.00
4085;BME280;2057;50.858;6.572;2024-03-06T05:19:48;100700.38;;;3.95;100.00
4085;BME280;2057;50.858;6.572;2024-03-06T05:22:15;100700.53;;;3.86;100.00
4085;BME280;2057;50.858;6.572;2024-03-06T05:24:43;100711.59;;;3.88;100.00
4085;BME280;2057;50.858;6.572;2024-03-06T05:27:09;100714.50;;;3.83;100.00
4085;BME280;2057;50.858;6.572;2024-03-06T05:29:36;100712.09;;;3.84;100.00
4085;BME280;2057;50.858;6.572;2024-03-06T05:32:02;100705.84;;;3.79;100.00
4085;BME280;2057;50.858;6.572;2024-03-06T05:34:28;100723.41;;;3.79;100.00
4085;BME280;2057;50.858;6.572;2024-03-06T05:36:54;100721.56;;;3.35;100.00
4085;BME280;2057;50.858;6.572;2024-03-06T05:39:20;100726.97;;;3.50;100.00
4085;BME280;2057;50.858;6.572;2024-03-06T05:41:45;100731.88;;;3.49;100.00
4085;BME280;2057;50.858;6.572;2024-03-06T05:44:10;100734.63;;;3.41;100.00
4085;BME280;2057;50.858;6.572;2024-03-06T05:46:36;100741.28;;;3.51;100.00
4085;BME280;2057;50.858;6.572;2024-03-06T05:49:02;100743.28;;;3.24;100.00
4085;BME280;2057;50.858;6.572;2024-03-06T05:51:27;100744.91;;;3.24;100.00
4085;BME280;2057;50.858;6.572;2024-03-06T05:53:55;100747.66;;;3.17;100.00
4085;BME280;2057;50.858;6.572;2024-03-06T05:56:21;100750.94;;;3.16;100.00
4085;BME280;2057;50.858;6.572;2024-03-06T05:58:50;100748.63;;;3.08;100.00
4085;BME280;2057;50.858;6.572;2024-03-06T06:01:16;100748.41;;;3.05;100.00
4085;BME280;2057;50.858;6.572;2024-03-06T06:03:46;100762.06;;;2.98;100.00
4085;BME280;2057;50.858;6.572;2024-03-06T06:06:14;100769.72;;;3.10;100.00
4085;BME280;2057;50.858;6.572;2024-03-06T06:08:42;100768.34;;;3.14;100.00
4085;BME280;2057;50.858;6.572;2024-03-06T06:11:11;100779.88;;;3.02;100.00
4085;BME280;2057;50.858;6.572;2024-03-06T06:13:39;100776.00;;;3.05;100.00
4085;BME280;2057;50.858;6.572;2024-03-06T06:16:06;100784.28;;;3.04;100.00
4085;BME280;2057;50.858;6.572;2024-03-06T06:18:32;100782.03;;;3.07;100.00
4085;BME280;2057;50.858;6.572;2024-03-06T06:20:58;100792.81;;;3.06;100.00
4085;BME280;2057;50.858;6.572;2024-03-06T06:23:23;100789.31;;;3.14;100.00
4085;BME280;2057;50.858;6.572;2024-03-06T06:25:48;100794.56;;;3.07;100.00
4085;BME280;2057;50.858;6.572;2024-03-06T06:28:14;100795.91;;;3.04;100.00
4085;BME280;2057;50.858;6.572;2024-03-06T06:30:39;100801.09;;;3.16;100.00
4085;BME280;2057;50.858;6.572;2024-03-06T06:33:05;100797.06;;;3.07;100.00
4085;BME280;2057;50.858;6.572;2024-03-06T06:35:30;100811.34;;;3.08;100.00
4085;BME280;2057;50.858;6.572;2024-03-06T06:37:56;100814.63;;;3.07;100.00
4085;BME280;2057;50.858;6.572;2024-03-06T06:40:24;100816.88;;;3.04;100.00
4085;BME280;2057;50.858;6.572;2024-03-06T06:42:49;100818.75;;;3.07;100.00
4085;BME280;2057;50.858;6.572;2024-03-06T06:45:18;100809.09;;;3.11;100.00
4085;BME280;2057;50.858;6.572;2024-03-06T06:47:44;100808.44;;;3.04;100.00
4085;BME280;2057;50.858;6.572;2024-03-06T06:50:09;100811.88;;;3.14;100.00
4085;BME280;2057;50.858;6.572;2024-03-06T06:52:36;100823.06;;;3.90;100.00
4085;BME280;2057;50.858;6.572;2024-03-06T06:55:02;100826.50;;;3.81;100.00
4085;BME280;2057;50.858;6.572;2024-03-06T06:57:27;100832.66;;;3.64;100.00
4085;BME280;2057;50.858;6.572;2024-03-06T06:59:52;100832.00;;;3.45;100.00
4085;BME280;2057;50.858;6.572;2024-03-06T07:02:20;100833.13;;;3.49;100.00
4085;BME280;2057;50.858;6.572;2024-03-06T07:04:48;100835.38;;;3.56;100.00
4085;BME280;2057;50.858;6.572;2024-03-06T07:07:14;100842.31;;;3.49;100.00
4085;BME280;2057;50.858;6.572;2024-03-06T07:09:39;100832.50;;;3.52;100.00
4085;BME280;2057;50.858;6.572;2024-03-06T07:12:04;100835.38;;;3.56;100.00
4085;BME280;2057;50.858;6.572;2024-03-06T07:14:30;100832.38;;;3.50;100.00
4085;BME280;2057;50.858;6.572;2024-03-06T07:16:55;100838.66;;;3.66;100.00
4085;BME280;2057;50.858;6.572;2024-03-06T07:19:20;100845.94;;;3.73;100.00
4085;BME280;2057;50.858;6.572;2024-03-06T07:21:46;100847.59;;;3.72;100.00
4085;BME280;2057;50.858;6.572;2024-03-06T07:24:11;100845.06;;;3.72;100.00
4085;BME280;2057;50.858;6.572;2024-03-06T07:26:36;100839.78;;;3.80;100.00
4085;BME280;2057;50.858;6.572;2024-03-06T07:29:02;100844.19;;;3.92;100.00
4085;BME280;2057;50.858;6.572;2024-03-06T07:31:30;100848.47;;;3.93;100.00
4085;BME280;2057;50.858;6.572;2024-03-06T07:33:55;100861.66;;;4.01;100.00
4085;BME280;2057;50.858;6.572;2024-03-06T07:36:21;100861.00;;;4.14;100.00
4085;BME280;2057;50.858;6.572;2024-03-06T07:38:47;100858.13;;;4.10;100.00
4085;BME280;2057;50.858;6.572;2024-03-06T07:41:12;100872.78;;;4.26;100.00
4085;BME280;2057;50.858;6.572;2024-03-06T07:43:37;100868.28;;;4.32;100.00
4085;BME280;2057;50.858;6.572;2024-03-06T07:46:04;100868.88;;;4.29;100.00
4085;BME280;2057;50.858;6.572;2024-03-06T07:48:36;100872.38;;;4.42;100.00
4085;BME280;2057;50.858;6.572;2024-03-06T07:51:01;100866.97;;;4.58;100.00
4085;BME280;2057;50.858;6.572;2024-03-06T07:53:29;100870.13;;;4.55;100.00
4085;BME280;2057;50.858;6.572;2024-03-06T07:55:54;100882.44;;;4.52;100.00
4085;BME280;2057;50.858;6.572;2024-03-06T07:58:22;100881.28;;;4.59;100.00
4085;BME280;2057;50.858;6.572;2024-03-06T08:00:52;100882.03;;;4.90;100.00
4085;BME280;2057;50.858;6.572;2024-03-06T08:03:21;100886.69;;;4.96;100.00
4085;BME280;2057;50.858;6.572;2024-03-06T08:05:49;100886.75;;;5.08;100.00
4085;BME280;2057;50.858;6.572;2024-03-06T08:08:15;100886.00;;;5.09;100.00
4085;BME280;2057;50.858;6.572;2024-03-06T08:10:40;100889.75;;;5.14;100.00
4085;BME280;2057;50.858;6.572;2024-03-06T08:13:05;100896.00;;;5.19;100.00
4085;BME280;2057;50.858;6.572;2024-03-06T08:15:31;100891.09;;;5.21;100.00
4085;BME280;2057;50.858;6.572;2024-03-06T08:17:56;100904.03;;;5.25;100.00
4085;BME280;2057;50.858;6.572;2024-03-06T08:20:21;100901.81;;;5.40;100.00
4085;BME280;2057;50.858;6.572;2024-03-06T08:22:46;100908.91;;;5.56;100.00
4085;BME280;2057;50.858;6.572;2024-03-06T08:25:12;100910.31;;;5.53;100.00
4085;BME280;2057;50.858;6.572;2024-03-06T08:27:43;100905.38;;;5.54;100.00
4085;BME280;2057;50.858;6.572;2024-03-06T08:30:09;100903.56;;;5.63;100.00
4085;BME280;2057;50.858;6.572;2024-03-06T08:32:37;100905.03;;;5.72;100.00
4085;BME280;2057;50.858;6.572;2024-03-06T08:35:08;100911.16;;;5.75;100.00
4085;BME280;2057;50.858;6.572;2024-03-06T08:37:40;100915.13;;;5.84;100.00
4085;BME280;2057;50.858;6.572;2024-03-06T08:40:09;100909.44;;;5.86;100.00
4085;BME280;2057;50.858;6.572;2024-03-06T08:42:45;100913.22;;;5.91;100.00
4085;BME280;2057;50.858;6.572;2024-03-06T08:45:12;100924.22;;;6.04;100.00
4085;BME280;2057;50.858;6.572;2024-03-06T08:47:41;100924.44;;;6.07;100.00
4085;BME280;2057;50.858;6.572;2024-03-06T08:50:06;100929.06;;;6.12;100.00
4085;BME280;2057;50.858;6.572;2024-03-06T08:52:35;100929.94;;;6.13;100.00
4085;BME280;2057;50.858;6.572;2024-03-06T08:55:03;100940.50;;;6.19;100.00
4085;BME280;2057;50.858;6.572;2024-03-06T08:57:29;100934.03;;;6.23;100.00
4085;BME280;2057;50.858;6.572;2024-03-06T08:59:59;100936.91;;;6.27;100.00
4085;BME280;2057;50.858;6.572;2024-03-06T09:02:25;100933.91;;;6.33;100.00
4085;BME280;2057;50.858;6.572;2024-03-06T09:04:51;100936.16;;;6.40;100.00
4085;BME280;2057;50.858;6.572;2024-03-06T09:07:20;100933.50;;;6.51;100.00
4085;BME280;2057;50.858;6.572;2024-03-06T09:09:49;100939.44;;;6.63;100.00
4085;BME280;2057;50.858;6.572;2024-03-06T09:12:14;100935.16;;;6.62;100.00
4085;BME280;2057;50.858;6.572;2024-03-06T09:14:49;100944.28;;;6.72;100.00
4085;BME280;2057;50.858;6.572;2024-03-06T09:17:14;100945.59;;;6.67;100.00
4085;BME280;2057;50.858;6.572;2024-03-06T09:19:44;100940.66;;;6.68;100.00
4085;BME280;2057;50.858;6.572;2024-03-06T09:22:10;100946.94;;;6.73;100.00
4085;BME280;2057;50.858;6.572;2024-03-06T09:24:35;100943.41;;;6.83;100.00
4085;BME280;2057;50.858;6.572;2024-03-06T09:27:02;100942.88;;;6.87;100.00
4085;BME280;2057;50.858;6.572;2024-03-06T09:29:27;100943.06;;;6.79;100.00
4085;BME280;2057;50.858;6.572;2024-03-06T09:31:52;100951.09;;;6.97;100.00
4085;BME280;2057;50.858;6.572;2024-03-06T09:34:18;100952.63;;;7.06;100.00
4085;BME280;2057;50.858;6.572;2024-03-06T09:36:47;100951.59;;;7.16;100.00
4085;BME280;2057;50.858;6.572;2024-03-06T09:39:19;100955.69;;;7.14;100.00
4085;BME280;2057;50.858;6.572;2024-03-06T09:41:49;100961.50;;;7.13;100.00
4085;BME280;2057;50.858;6.572;2024-03-06T09:44:17;100959.75;;;7.12;100.00
4085;BME280;2057;50.858;6.572;2024-03-06T09:46:44;100961.50;;;7.13;100.00
4085;BME280;2057;50.858;6.572;2024-03-06T09:49:16;100967.75;;;7.18;100.00
4085;BME280;2057;50.858;6.572;2024-03-06T09:51:50;100967.94;;;7.33;100.00
4085;BME280;2057;50.858;6.572;2024-03-06T09:54:16;100971.44;;;7.47;100.00
4085;BME280;2057;50.858;6.572;2024-03-06T09:56:49;100973.84;;;7.58;100.00
4085;BME280;2057;50.858;6.572;2024-03-06T09:59:14;100975.59;;;7.47;100.00
4085;BME280;2057;50.858;6.572;2024-03-06T10:01:54;100979.13;;;7.37;100.00
4085;BME280;2057;50.858;6.572;2024-03-06T10:06:50;100974.25;;;7.64;100.00
4085;BME280;2057;50.858;6.572;2024-03-06T10:09:19;100976.41;;;7.71;100.00
4085;BME280;2057;50.858;6.572;2024-03-06T10:11:46;100981.69;;;7.74;100.00
4085;BME280;2057;50.858;6.572;2024-03-06T10:14:12;100978.19;;;7.97;100.00
4085;BME280;2057;50.858;6.572;2024-03-06T10:17:00;100985.41;;;8.05;100.00
4085;BME280;2057;50.858;6.572;2024-03-06T10:19:27;100984.91;;;7.97;100.00
4085;BME280;2057;50.858;6.572;2024-03-06T10:21:54;100980.41;;;8.18;100.00
4085;BME280;2057;50.858;6.572;2024-03-06T10:24:20;100980.66;;;8.09;100.00
4085;BME280;2057;50.858;6.572;2024-03-06T10:26:46;100975.09;;;8.01;100.00
4085;BME280;2057;50.858;6.572;2024-03-06T10:29:18;100985.16;;;8.13;100.00
4085;BME280;2057;50.858;6.572;2024-03-06T10:31:58;100983.84;;;8.32;100.00
4085;BME280;2057;50.858;6.572;2024-03-06T10:34:26;100982.56;;;8.51;100.00
4085;BME280;2057;50.858;6.572;2024-03-06T10:36:56;100992.34;;;8.46;100.00
4085;BME280;2057;50.858;6.572;2024-03-06T10:39:24;100988.59;;;8.53;100.00
4085;BME280;2057;50.858;6.572;2024-03-06T10:41:54;100997.97;;;8.67;100.00
4085;BME280;2057;50.858;6.572;2024-03-06T10:44:23;100991.56;;;8.86;100.00
4085;BME280;2057;50.858;6.572;2024-03-06T10:47:03;100997.88;;;9.06;100.00
4085;BME280;2057;50.858;6.572;2024-03-06T10:49:30;100994.19;;;9.01;100.00
4085;BME280;2057;50.858;6.572;2024-03-06T10:52:00;100995.34;;;9.19;100.00
4085;BME280;2057;50.858;6.572;2024-03-06T10:54:29;100996.38;;;9.50;100.00
4085;BME280;2057;50.858;6.572;2024-03-06T10:57:04;100993.56;;;9.32;100.00
4085;BME280;2057;50.858;6.572;2024-03-06T10:59:30;100998.34;;;9.27;100.00
4085;BME280;2057;50.858;6.572;2024-03-06T11:01:56;100993.94;;;9.38;100.00
4085;BME280;2057;50.858;6.572;2024-03-06T11:04:26;100999.03;;;9.38;100.00
4085;BME280;2057;50.858;6.572;2024-03-06T11:07:00;100995.25;;;9.31;100.00
4085;BME280;2057;50.858;6.572;2024-03-06T11:09:26;100998.16;;;9.37;100.00
4085;BME280;2057;50.858;6.572;2024-03-06T11:11:53;100994.63;;;9.49;100.00
4085;BME280;2057;50.858;6.572;2024-03-06T11:14:23;101001.28;;;9.75;100.00
4085;BME280;2057;50.858;6.572;2024-03-06T11:19:29;101008.13;;;9.63;97.90
4085;BME280;2057;50.858;6.572;2024-03-06T11:21:55;101005.59;;;9.63;95.17
4085;BME280;2057;50.858;6.572;2024-03-06T11:24:22;100998.81;;;9.77;93.05
4085;BME280;2057;50.858;6.572;2024-03-06T11:27:00;101005.44;;;9.60;92.70
4085;BME280;2057;50.858;6.572;2024-03-06T11:32:58;101004.38;;;9.42;91.46
4085;BME280;2057;50.858;6.572;2024-03-06T11:35:30;101007.69;;;9.55;90.50
4085;BME280;2057;50.858;6.572;2024-03-06T11:37:55;100998.81;;;9.77;91.40
4085;BME280;2057;50.858;6.572;2024-03-06T11:40:24;100991.09;;;10.17;92.76
4085;BME280;2057;50.858;6.572;2024-03-06T11:42:50;101008.09;;;10.04;91.80
4085;BME280;2057;50.858;6.572;2024-03-06T11:45:16;101004.94;;;9.94;90.84
4085;BME280;2057;50.858;6.572;2024-03-06T11:48:03;101001.50;;;9.65;89.76
4085;BME280;2057;50.858;6.572;2024-03-06T11:50:29;101002.41;;;9.52;89.85
4085;BME280;2057;50.858;6.572;2024-03-06T11:52:58;101008.59;;;9.70;90.04
4085;BME280;2057;50.858;6.572;2024-03-06T11:55:24;101003.31;;;9.81;89.12
4085;BME280;2057;50.858;6.572;2024-03-06T11:57:51;101004.47;;;9.86;89.82
4085;BME280;2057;50.858;6.572;2024-03-06T12:00:23;101001.91;;;9.99;90.46
4085;BME280;2057;50.858;6.572;2024-03-06T12:02:51;100996.03;;;10.59;92.73
4085;BME280;2057;50.858;6.572;2024-03-06T12:05:19;100998.94;;;10.65;92.37
4085;BME280;2057;50.858;6.572;2024-03-06T12:07:49;100994.31;;;10.29;90.22
4085;BME280;2057;50.858;6.572;2024-03-06T12:10:18;100997.69;;;10.43;92.54
4085;BME280;2057;50.858;6.572;2024-03-06T12:12:44;100994.13;;;10.55;90.31
4085;BME280;2057;50.858;6.572;2024-03-06T12:15:14;100998.09;;;10.36;86.20
4085;BME280;2057;50.858;6.572;2024-03-06T12:17:48;100999.78;;;10.35;86.92
4085;BME280;2057;50.858;6.572;2024-03-06T12:20:16;101003.56;;;10.57;87.86
4085;BME280;2057;50.858;6.572;2024-03-06T12:22:59;101003.13;;;10.64;87.61
4085;BME280;2057;50.858;6.572;2024-03-06T12:25:26;100999.63;;;10.62;87.63
4085;BME280;2057;50.858;6.572;2024-03-06T12:28:06;101003.66;;;10.59;84.47
4085;BME280;2057;50.858;6.572;2024-03-06T12:30:41;101001.75;;;10.70;82.78
4085;BME280;2057;50.858;6.572;2024-03-06T12:33:09;101000.13;;;10.87;83.53
4085;BME280;2057;50.858;6.572;2024-03-06T12:35:40;101000.81;;;11.14;78.28
4085;BME280;2057;50.858;6.572;2024-03-06T12:38:15;101004.66;;;11.22;78.50
4085;BME280;2057;50.858;6.572;2024-03-06T12:40:41;101002.47;;;11.45;80.97
4085;BME280;2057;50.858;6.572;2024-03-06T12:43:09;100997.03;;;11.70;87.70
4085;BME280;2057;50.858;6.572;2024-03-06T12:45:37;101003.28;;;11.77;86.79
4085;BME280;2057;50.858;6.572;2024-03-06T12:48:03;100997.75;;;11.36;82.34
4085;BME280;2057;50.858;6.572;2024-03-06T12:50:29;100995.16;;;11.20;85.56
4085;BME280;2057;50.858;6.572;2024-03-06T12:52:55;100993.97;;;11.13;85.09
4085;BME280;2057;50.858;6.572;2024-03-06T12:55:21;100991.28;;;11.58;87.09
4085;BME280;2057;50.858;6.572;2024-03-06T12:57:46;100991.84;;;11.69;84.61
4085;BME280;2057;50.858;6.572;2024-03-06T13:00:12;101003.28;;;11.60;82.18
4085;BME280;2057;50.858;6.572;2024-03-06T13:02:45;101002.25;;;11.57;80.84
4085;BME280;2057;50.858;6.572;2024-03-06T13:05:11;100991.78;;;11.67;77.97
4085;BME280;2057;50.858;6.572;2024-03-06T13:07:36;100996.63;;;11.63;75.05
4085;BME280;2057;50.858;6.572;2024-03-06T13:10:05;101003.28;;;11.60;75.23
4085;BME280;2057;50.858;6.572;2024-03-06T13:12:30;100995.34;;;11.71;72.75
4085;BME280;2057;50.858;6.572;2024-03-06T13:14:57;100995.03;;;11.65;72.55
4085;BME280;2057;50.858;6.572;2024-03-06T13:17:22;100995.06;;;11.33;69.13
4085;BME280;2057;50.858;6.572;2024-03-06T13:19:47;100995.41;;;11.24;71.22
4085;BME280;2057;50.858;6.572;2024-03-06T13:22:13;100999.59;;;11.39;70.95